Latest Weather Observations for Charleville

IDQ60801

Issued at 10:32 am EST Thursday 2 July 2015 (issued every 30 minutes, with the page automatically refreshed every 10 minutes)

About weather observations | Map of weather stations | Latest weather observations for QLD | Other Formats
Station Details ID: 044021 Name: CHARLEVILLE AERO Lat: -26.41 Lon: 146.26 Height: 301.6 m
Data from the previous 72 hours. | See also: Recent months at Charleville
Date/Time
EST
Temp
°C
App
Temp
°C
Dew
Point
Rel
Hum
%
Delta-T
°C
Wind Press
QNH
hPa
Press
MSL
hPa
Rain
since 9 am
mm
Dir
 
Spd
km/h
Gust
km/h
Spd
kts
Gust
kts
02/10:30am 13.9 12.0 10.6 80 1.7 SW 11 17 6 9 1026.1 - 0.0
02/10:00am 14.1 13.8 10.2 77 2.0 WSW 2 7 1 4 1026.3 - 0.0
02/09:30am 13.4 13.5 10.0 80 1.8 CALM 0 0 0 0 1026.3 - 0.0
02/09:00am 11.1 11.0 9.6 90 0.8 CALM 0 0 0 0 1026.0 1026.3 0.2
02/08:30am 9.2 8.7 7.9 92 0.6 CALM 0 0 0 0 1026.1 - 0.2
02/08:00am 7.5 6.8 7.0 97 0.2 CALM 0 0 0 0 1026.2 - 0.2
02/07:49am 6.7 5.9 6.4 98 0.1 CALM 0 0 0 0 1026.1 - 0.2
02/07:30am 5.9 4.9 5.6 98 0.1 CALM 0 0 0 0 1026.0 - 0.2
02/07:00am 5.7 4.7 5.5 99 0.1 CALM 0 0 0 0 1025.9 - 0.2
02/06:30am 6.0 5.0 5.7 98 0.1 CALM 0 0 0 0 1025.4 - 0.2
02/05:56am 5.9 4.9 5.5 97 0.2 CALM 0 0 0 0 1025.4 - 0.2
02/05:30am 6.2 5.3 5.9 98 0.1 CALM 0 0 0 0 1024.8 - 0.2
02/05:00am 6.4 5.5 6.0 97 0.2 CALM 0 0 0 0 1024.8 - 0.2
02/04:30am 6.8 5.2 6.5 98 0.1 NNE 4 7 2 4 1024.7 - 0.2
02/04:00am 6.7 5.8 6.2 97 0.2 CALM 0 0 0 0 1024.8 - 0.2
02/03:48am 6.6 5.7 6.2 97 0.2 CALM 0 0 0 0 1024.8 - 0.2
02/03:30am 6.6 5.8 6.3 98 0.1 CALM 0 0 0 0 1024.7 - 0.2
02/03:00am 7.0 6.2 6.4 96 0.3 CALM 0 0 0 0 1024.8 1025.2 0.2
02/02:30am 7.3 6.6 6.8 97 0.2 CALM 0 0 0 0 1024.9 - 0.2
02/02:00am 7.7 7.1 7.2 97 0.2 CALM 0 0 0 0 1025.3 - 0.2
02/01:30am 8.2 7.6 7.6 96 0.3 CALM 0 0 0 0 1025.0 - 0.2
02/01:00am 8.6 8.2 8.1 97 0.2 CALM 0 0 0 0 1025.0 - 0.2
02/12:30am 9.1 8.8 8.5 96 0.3 CALM 0 0 0 0 1025.2 - 0.2
02/12:00am 9.7 8.8 9.1 96 0.3 S 4 6 2 3 1025.5 1025.8 0.2
 
Date/Time
EST
Temp
°C
App
Temp
°C
Dew
Point
Rel
Hum
%
Delta-T
°C
Wind Press
QNH
hPa
Press
MSL
hPa
Rain
since 9 am
mm
Dir
 
Spd
km/h
Gust
km/h
Spd
kts
Gust
kts
01/11:30pm 10.5 9.1 9.6 94 0.5 SE 7 9 4 5 1025.4 - 0.2
01/11:00pm 11.3 10.0 10.1 92 0.6 SE 7 9 4 5 1025.6 - 0.2
01/10:30pm 11.6 10.6 10.3 92 0.7 ESE 6 6 3 3 1025.9 - 0.2
01/10:00pm 11.4 11.6 10.4 94 0.5 CALM 0 0 0 0 1026.2 - 0.2
01/09:30pm 11.2 11.4 10.6 96 0.3 CALM 0 6 0 3 1026.1 - 0.2
01/09:00pm 10.6 9.3 10.0 96 0.3 S 7 7 4 4 1026.0 1026.3 0.2
01/08:30pm 10.6 9.5 9.9 95 0.4 SSE 6 7 3 4 1026.0 - 0.2
01/08:00pm 11.2 11.3 10.1 93 0.6 CALM 0 0 0 0 1025.8 - 0.2
01/07:30pm 12.2 12.0 10.3 88 1.0 SE 2 6 1 3 1025.7 - 0.2
01/07:00pm 13.3 11.7 10.3 82 1.6 SSE 9 9 5 5 1025.6 - 0.2
01/06:30pm 14.2 12.2 10.3 77 2.1 SSE 11 15 6 8 1025.3 - 0.2
01/06:00pm 14.9 12.6 10.4 74 2.4 SSE 13 17 7 9 1024.8 1025.2 0.2
01/05:30pm 15.8 12.6 10.0 68 3.1 SSE 17 26 9 14 1024.6 - 0.2
01/05:00pm 16.1 14.2 10.4 69 3.1 S 11 17 6 9 1024.5 - 0.2
01/04:30pm 16.2 14.3 10.6 69 3.0 S 11 15 6 8 1024.6 - 0.2
01/04:00pm 16.7 14.4 10.5 67 3.3 SSE 13 15 7 8 1024.4 - 0.2
01/03:30pm 16.6 14.5 11.1 70 3.0 SSE 13 19 7 10 1024.5 - 0.2
01/03:00pm 16.8 14.8 10.2 65 3.5 SSE 11 17 6 9 1024.8 1025.2 0.2
01/02:30pm 16.9 16.3 10.4 65 3.5 S 4 9 2 5 1025.2 - 0.2
01/02:00pm 16.0 14.6 10.9 72 2.8 SE 9 11 5 6 1025.5 - 0.2
01/01:42pm 15.6 13.8 10.9 73 2.5 SE 11 15 6 8 1025.7 - 0.2
01/01:30pm 15.3 14.0 11.1 76 2.3 S 9 15 5 8 1025.8 - 0.2
01/01:00pm 14.4 11.9 11.2 81 1.7 S 15 20 8 11 1026.2 - 0.0
01/12:30pm 14.0 12.0 11.6 85 1.3 SE 13 17 7 9 1026.7 - 0.0
01/12:00pm 13.3 11.7 11.7 90 0.9 S 11 20 6 11 1027.0 1027.4 0.0
01/11:30am 12.9 11.0 11.9 94 0.5 SSE 13 15 7 8 1027.3 - 0.0
01/11:20am 12.7 11.3 12.1 96 0.3 SSE 11 15 6 8 1027.4 - 0.0
01/11:00am 12.5 10.7 12.1 97 0.2 SSE 13 15 7 8 1027.3 - 0.0
01/10:30am 12.2 11.1 11.8 97 0.2 SE 9 11 5 6 1027.5 - 0.0
01/10:00am 11.8 10.6 11.6 99 0.1 SE 9 13 5 7 1027.6 - 0.0
01/09:30am 11.3 9.6 11.2 99 0.1 SE 11 13 6 7 1027.6 - 0.0
01/09:00am 11.3 9.6 11.2 99 0.1 SSE 11 13 6 7 1027.3 1027.7 6.4
01/08:30am 10.7 9.2 10.5 99 0.1 SE 9 11 5 6 1027.1 - 6.4
01/08:00am 10.4 8.8 10.2 99 0.1 SE 9 13 5 7 1026.7 - 6.4
01/07:30am 10.1 8.1 10.0 99 0.1 S 11 13 6 7 1026.4 - 6.4
01/07:00am 10.0 8.3 9.9 99 0.1 S 9 13 5 7 1026.1 - 6.4
01/06:30am 10.2 8.9 10.1 99 0.1 S 7 9 4 5 1025.8 - 6.4
01/06:00am 10.6 10.4 10.4 99 0.1 S 2 9 1 5 1025.5 1025.8 6.4
01/05:30am 10.9 11.2 10.9 100 0.0 CALM 0 0 0 0 1025.3 - 6.4
01/05:00am 11.0 11.3 10.9 99 0.1 CALM 0 0 0 0 1025.3 - 6.4
01/04:30am 11.1 11.4 11.0 99 0.1 CALM 0 0 0 0 1025.3 - 6.4
01/04:00am 11.6 12.0 11.4 99 0.1 CALM 0 0 0 0 1025.4 - 6.4
01/03:30am 11.4 11.8 11.3 99 0.1 CALM 0 0 0 0 1025.3 - 6.2
01/03:00am 11.3 11.7 11.1 99 0.1 CALM 0 0 0 0 1025.3 1025.6 6.2
01/02:30am 11.2 11.5 11.0 99 0.1 CALM 0 0 0 0 1025.5 - 6.2
01/02:00am 10.9 11.1 10.7 99 0.1 CALM 0 0 0 0 1025.3 - 6.2
01/01:30am 11.0 10.1 10.8 99 0.1 SSW 6 7 3 4 1025.4 - 6.2
01/01:00am 11.2 10.8 11.0 99 0.1 SSW 4 7 2 4 1025.6 - 6.2
01/12:30am 11.5 11.9 11.3 99 0.1 CALM 0 0 0 0 1025.8 - 6.2
01/12:05am 11.7 11.8 11.5 99 0.1 SSW 2 7 1 4 1026.0 - 6.2
01/12:02am 11.7 12.2 11.5 99 0.1 CALM 0 2 0 1 1026.0 - 6.2
01/12:00am 11.8 12.3 11.5 98 0.2 CALM 0 0 0 0 1026.0 1026.1 6.2
 
Date/Time
EST
Temp
°C
App
Temp
°C
Dew
Point
Rel
Hum
%
Delta-T
°C
Wind Press
QNH
hPa
Press
MSL
hPa
Rain
since 9 am
mm
Dir
 
Spd
km/h
Gust
km/h
Spd
kts
Gust
kts
30/11:46pm 12.0 12.6 11.8 99 0.1 CALM 0 0 0 0 1026.0 - 6.2
30/11:30pm 12.2 11.5 11.9 98 0.2 SSW 7 9 4 5 1026.1 - 6.2
30/11:00pm 12.4 11.7 12.1 98 0.2 SSE 7 7 4 4 1026.1 - 6.2
30/10:53pm 12.4 11.9 12.1 98 0.2 S 6 7 3 4 1026.2 - 6.2
30/10:40pm 12.3 12.2 12.0 98 0.2 S 4 7 2 4 1026.3 - 6.2
30/10:38pm 12.3 12.5 12.0 98 0.2 S 2 7 1 4 1026.3 - 6.2
30/10:30pm 12.4 13.1 12.1 98 0.2 CALM 0 0 0 0 1026.2 - 6.2
30/10:00pm 13.1 12.6 12.7 97 0.2 SSE 7 7 4 4 1026.3 - 6.2
30/09:30pm 13.3 14.2 12.9 97 0.2 CALM 0 0 0 0 1026.6 - 6.0
30/09:00pm 13.2 14.1 12.9 98 0.2 CALM 0 0 0 0 1026.5 1026.6 6.0
30/08:30pm 13.5 14.5 13.2 98 0.2 CALM 0 0 0 0 1026.1 - 6.0
30/08:00pm 13.9 15.0 13.5 97 0.2 CALM 0 0 0 0 1025.9 - 6.0
30/07:30pm 14.1 14.5 13.7 97 0.2 SE 4 7 2 4 1025.8 - 6.0
30/07:00pm 14.6 15.1 14.1 97 0.3 ESE 4 9 2 5 1025.6 - 6.0
30/06:47pm 14.6 14.8 14.1 97 0.3 SE 6 11 3 6 1025.7 - 6.0
30/06:30pm 14.6 14.6 14.1 97 0.3 E 7 13 4 7 1025.4 - 5.8
30/06:24pm 14.8 15.7 14.1 96 0.4 SSE 2 9 1 5 1025.5 - 5.4
30/06:00pm 14.8 14.8 14.2 96 0.3 SSE 7 11 4 6 1025.7 1025.8 5.2
30/05:44pm 14.8 15.0 14.3 97 0.3 SSW 6 9 3 5 1025.6 - 5.2
30/05:30pm 14.7 14.3 14.2 97 0.3 SSW 9 11 5 6 1025.3 - 5.0
30/05:28pm 14.7 14.3 14.2 97 0.3 SSW 9 15 5 8 1025.4 - 4.8
30/05:12pm 14.7 13.5 14.1 96 0.3 SSW 13 17 7 9 1025.3 - 4.6
30/05:00pm 14.9 14.2 14.4 97 0.3 SW 11 15 6 8 1025.3 - 4.6
30/04:30pm 15.1 14.0 14.2 94 0.5 SW 13 20 7 11 1025.3 - 4.0
30/04:29pm 15.1 14.0 14.2 94 0.5 SW 13 20 7 11 1025.3 - 4.0
30/04:12pm 15.4 15.2 14.7 96 0.4 SW 9 15 5 8 1025.0 - 3.6
30/04:00pm 15.5 14.5 14.7 95 0.5 SSW 13 19 7 10 1024.9 - 3.6
30/03:53pm 15.5 14.6 14.9 96 0.3 SW 13 19 7 10 1024.8 - 3.6
30/03:45pm 15.6 14.7 14.9 96 0.4 SW 13 19 7 10 1024.9 - 3.2
30/03:30pm 15.4 14.5 14.8 96 0.3 SW 13 17 7 9 1024.9 - 3.0
30/03:00pm 16.2 15.7 15.0 93 0.7 SW 11 17 6 9 1024.8 1025.0 1.6
30/02:30pm 18.3 17.8 13.7 74 2.7 N 9 11 5 6 1024.5 - 0.2
30/02:00pm 19.3 18.4 11.3 60 4.4 N 7 11 4 6 1024.0 - 0.2
30/01:30pm 19.4 17.3 11.2 59 4.6 NNE 13 19 7 10 1024.0 - 0.2
30/01:00pm 19.7 17.7 11.4 58 4.6 N 13 17 7 9 1024.4 - 0.2
30/12:30pm 19.6 17.6 11.4 59 4.6 N 13 17 7 9 1024.7 - 0.2
30/12:00pm 19.6 16.2 11.1 58 4.7 N 20 26 11 14 1025.4 1025.5 0.2
30/11:30am 20.3 17.2 11.5 57 4.9 N 19 24 10 13 1025.7 - 0.2
30/11:00am 19.8 17.5 11.7 59 4.5 N 15 20 8 11 1025.8 - 0.2
30/10:30am 18.8 17.0 12.2 65 3.7 NNE 13 17 7 9 1026.0 - 0.0
30/10:00am 17.3 15.8 11.8 70 3.1 N 11 17 6 9 1026.4 - 0.0
30/09:30am 16.4 17.1 12.1 76 2.4 CALM 0 0 0 0 1026.3 - 0.0
30/09:00am 15.8 14.7 11.8 77 2.2 NNE 9 11 5 6 1026.2 1026.3 0.4
30/08:30am 14.9 13.3 11.7 81 1.7 ENE 11 13 6 7 1025.9 - 0.4
30/08:00am 14.2 13.4 11.8 85 1.3 ENE 7 7 4 4 1025.8 - 0.4
30/07:30am 12.0 11.7 11.3 95 0.4 S 4 7 2 4 1025.5 - 0.4
30/07:00am 12.0 12.4 11.3 95 0.4 CALM 0 0 0 0 1025.3 - 0.4
30/06:30am 12.1 12.5 11.3 95 0.4 CALM 0 0 0 0 1024.9 - 0.4
30/06:00am 12.5 13.0 11.6 94 0.5 CALM 0 0 0 0 1024.8 1025.0 0.4
30/05:30am 13.1 13.7 11.9 92 0.7 CALM 0 0 0 0 1024.5 - 0.4
30/05:00am 13.5 14.1 12.0 91 0.8 CALM 0 0 0 0 1024.3 - 0.4
30/04:30am 14.1 14.0 12.1 88 1.1 SE 4 9 2 5 1024.0 - 0.4
30/04:00am 15.1 14.6 12.2 83 1.6 S 6 7 3 4 1024.1 - 0.4
30/03:30am 16.0 14.9 12.1 77 2.2 NE 9 9 5 5 1024.0 - 0.4
30/03:00am 16.3 15.3 12.2 77 2.3 NE 9 13 5 7 1024.0 1024.2 0.4
30/02:30am 16.7 14.9 12.0 74 2.6 NE 13 19 7 10 1024.2 - 0.4
30/02:00am 16.6 15.6 12.3 76 2.4 NE 9 11 5 6 1024.4 - 0.4
30/01:30am 16.3 16.3 13.5 83 1.6 E 6 7 3 4 1024.8 - 0.4
30/01:00am 16.2 15.4 13.0 81 1.8 SE 9 11 5 6 1025.2 - 0.4
30/12:30am 16.3 15.6 13.1 81 1.8 ESE 9 11 5 6 1025.2 - 0.4
30/12:00am 16.1 15.5 13.4 84 1.5 SE 9 11 5 6 1025.4 1025.5 0.4
 
Date/Time
EST
Temp
°C
App
Temp
°C
Dew
Point
Rel
Hum
%
Delta-T
°C
Wind Press
QNH
hPa
Press
MSL
hPa
Rain
since 9 am
mm
Dir
 
Spd
km/h
Gust
km/h
Spd
kts
Gust
kts
29/11:30pm 16.3 15.6 13.3 82 1.7 SSE 9 11 5 6 1025.8 - 0.4
29/11:00pm 16.5 15.5 13.4 82 1.8 SE 11 13 6 7 1026.0 - 0.4
29/10:30pm 16.9 15.0 13.0 78 2.2 ESE 15 22 8 12 1026.0 - 0.4
29/10:24pm 16.9 14.7 13.2 79 2.1 ESE 17 22 9 12 1026.0 - 0.4
29/10:00pm 17.9 15.8 12.4 70 3.1 E 15 20 8 11 1026.2 - 0.0
29/09:59pm 18.1 16.0 12.3 69 3.3 E 15 20 8 11 1026.2 - 0.0
29/09:30pm 18.9 16.8 11.0 60 4.4 SE 13 17 7 9 1026.0 - 0.0
29/09:00pm 19.0 16.4 10.8 59 4.5 SE 15 17 8 9 1025.9 1026.0 0.0
29/08:30pm 19.2 17.0 10.7 58 4.7 SE 13 17 7 9 1025.9 - 0.0
29/08:00pm 19.4 17.1 10.4 56 4.9 SE 13 17 7 9 1025.6 - 0.0
29/07:30pm 19.6 17.3 10.5 55 5.0 SE 13 17 7 9 1025.3 - 0.0
29/07:00pm 19.9 17.2 10.2 53 5.3 SE 15 19 8 10 1024.9 - 0.0
29/06:30pm 20.3 17.5 10.1 52 5.6 ESE 15 20 8 11 1024.7 - 0.0
29/06:00pm 20.3 18.1 9.2 49 5.9 ESE 11 15 6 8 1024.4 1024.6 0.0
29/05:30pm 21.1 18.7 8.6 44 6.7 SE 11 15 6 8 1024.2 - 0.0
29/05:00pm 22.4 19.1 8.2 40 7.6 SE 15 20 8 11 1024.1 - 0.0
29/04:30pm 23.1 20.1 7.6 37 8.2 ESE 13 20 7 11 1023.9 - 0.0
29/04:00pm 23.2 19.7 7.4 36 8.4 SE 15 19 8 10 1024.1 - 0.0
29/03:30pm 23.6 21.9 8.3 37 8.2 S 7 13 4 7 1024.2 - 0.0
29/03:00pm 22.6 20.3 9.0 42 7.3 NE 11 15 6 8 1024.4 1024.6 0.0
29/02:30pm 23.4 21.0 8.6 38 8.0 E 11 19 6 10 1024.4 - 0.0
29/02:00pm 22.8 20.5 9.1 41 7.5 NNE 11 17 6 9 1024.7 - 0.0
29/01:30pm 22.2 20.3 9.0 43 7.1 NE 9 20 5 11 1025.0 - 0.0
29/01:00pm 22.4 19.3 8.9 42 7.3 E 15 26 8 14 1025.5 - 0.0
29/12:30pm 22.5 20.5 10.1 45 6.9 NE 11 20 6 11 1025.9 - 0.0
29/12:00pm 21.9 19.0 12.3 54 5.5 ENE 19 32 10 17 1026.5 1026.6 0.0
29/11:30am 21.0 19.5 16.4 75 2.8 ENE 19 28 10 15 1027.0 - 0.0
29/11:00am 20.5 18.6 14.2 67 3.7 ENE 17 26 9 14 1027.2 - 0.0

Other Formats:

Comma delimited format used in spreadsheet applications
http://www.bom.gov.au/fwo/IDQ60801/IDQ60801.94510.axf

JavaScript Object Notation format (JSON) in row-major order
http://www.bom.gov.au/fwo/IDQ60801/IDQ60801.94510.json